Papuan Chief — VRRC — position and weather

sailwx.info

Track history (hours):
 
Tides and Currents Weather Stations Pressure Air Temp Water Temp Dewpoint Dewpoint Depression Visibility Wind Speed Wind Dir Waves Ship Positions

Papuan Chief

Last reported at 2018-Jun-15 21:34 UTC. Time now 2018-Jun-21 23:47 UTC.
Position S 26°39' E 153°22'.

Length 158.1 m; beam 22 m; draft 7.8 m.

Type: Ship (hazmat cat D). MMSI: 477061000.

Date/timePositionNaut miles runAvg speedWind from/ knotsBaromVisibWave heightAir tempDewpointWater temp
2018-Jun-15 21:34S 26°39' E 153°22'312.0
2018-Jun-15 21:21S 26°40' E 153°19'611.9
2018-Jun-15 20:52S 26°42' E 153°13'710.3
2018-Jun-15 20:13S 26°48' E 153°11'311.8
2018-Jun-15 19:56S 26°52' E 153°09'613.8
2018-Jun-15 19:30S 26°57' E 153°13'713.7
2018-Jun-15 19:00S 27°03' E 153°16'713.3
2018-Jun-15 18:31S 27°08' E 153°21'714.1
2018-Jun-15 18:00S 27°15' E 153°19'713.8
2018-Jun-15 17:30S 27°18' E 153°13'5 9.6
2018-Jun-15 17:01S 27°22' E 153°10'0 0.1
2018-Jun-15 16:26S 27°22' E 153°10'0 0.0
2018-Jun-15 15:56S 27°22' E 153°10'0 0.0
2018-Jun-15 15:29S 27°22' E 153°10'0 0.0
2018-Jun-15 14:59S 27°22' E 153°10'0 0.0
2018-Jun-15 14:29S 27°22' E 153°10'0 0.0
2018-Jun-15 13:56S 27°22' E 153°10'0 0.0
2018-Jun-15 13:29S 27°22' E 153°10'0 0.0
2018-Jun-15 12:59S 27°22' E 153°10'0 0.0
2018-Jun-15 12:29S 27°22' E 153°10'0 0.0
2018-Jun-15 11:59S 27°22' E 153°10'0 0.0
2018-Jun-15 11:29S 27°22' E 153°10'0 0.0
2018-Jun-15 10:59S 27°22' E 153°10'0 0.0
2018-Jun-15 10:29S 27°22' E 153°10'0 0.0
2018-Jun-15 09:59S 27°22' E 153°10'0 0.0
2018-Jun-15 09:29S 27°22' E 153°10'0 0.0
2018-Jun-15 08:59S 27°22' E 153°10'0 0.0
2018-Jun-15 08:29S 27°22' E 153°10'0 0.0
2018-Jun-15 07:59S 27°22' E 153°10'0 0.0
2018-Jun-15 07:29S 27°22' E 153°10'0 0.0
2018-Jun-15 06:59S 27°22' E 153°10'0 0.0
2018-Jun-15 06:29S 27°22' E 153°10'0 0.0
2018-Jun-15 05:59S 27°22' E 153°10'0 0.0
2018-Jun-15 05:29S 27°22' E 153°10'0 0.9
2018-Jun-15 05:00S 27°22' E 153°10'4 7.6
2018-Jun-15 04:30S 27°19' E 153°12'612.7
2018-Jun-15 04:00S 27°13' E 153°16'612.0
2018-Jun-15 03:30S 27°09' E 153°21'611.9
2018-Jun-15 03:01S 27°03' E 153°18'611.4
2018-Jun-15 02:30S 26°59' E 153°14'713.0
2018-Jun-15 02:00S 26°53' E 153°10'13 5.1
2018-Jun-14 23:28S 26°51' E 153°25'1511.5
2018-Jun-14 22:11S 27°02' E 153°35'212.4
2018-Jun-14 22:00S 27°04' E 153°36'612.8
2018-Jun-14 21:30S 27°10' E 153°38'812.4
2018-Jun-14 20:51S 27°18' E 153°39'411.7
2018-Jun-14 20:30S 27°22' E 153°40'611.5
2018-Jun-14 20:00S 27°28' E 153°40'611.2
2018-Jun-14 19:27S 27°34' E 153°40'511.4
2018-Jun-14 18:59S 27°40' E 153°41'511.3
2018-Jun-14 18:30S 27°45' E 153°42'610.5
2018-Jun-14 17:58S 27°51' E 153°42'510.6
2018-Jun-14 17:30S 27°56' E 153°42'611.5
2018-Jun-14 17:00S 28°01' E 153°42'812.3
2018-Jun-14 16:23S 28°09' E 153°42'512.4
2018-Jun-14 15:58S 28°14' E 153°42'26212.5
2018-Jun-13 19:07S 32°29' E 152°36'413.4
2018-Jun-13 18:50S 32°32' E 152°33'513.7
2018-Jun-13 18:30S 32°36' E 152°29'613.3
2018-Jun-13 18:00S 32°40' E 152°24'713.0
2018-Jun-13 17:30S 32°46' E 152°19'612.7
2018-Jun-13 17:00S 32°49' E 152°13'713.3
2018-Jun-13 16:31S 32°53' E 152°06'713.2
2018-Jun-13 16:01S 32°57' E 152°00'713.2
2018-Jun-13 15:31S 33°01' E 151°55'713.4
2018-Jun-13 15:00S 33°06' E 151°49'3213.2
2018-Jun-13 12:33S 33°35' E 151°30'313.3
2018-Jun-13 12:22S 33°37' E 151°29'512.9
2018-Jun-13 12:00S 33°41' E 151°26'713.2
2018-Jun-13 11:31S 33°47' E 151°24'612.9
2018-Jun-13 11:01S 33°53' E 151°22'713.0
2018-Jun-13 10:30S 33°60' E 151°20'4 8.8
2018-Jun-13 10:00S 34°01' E 151°15'3 6.9
2018-Jun-13 09:30S 33°58' E 151°12'4 0.1
2018-Jun-12 05:06S 34°01' E 151°16'111.1
2018-Jun-12 04:59S 34°02' E 151°17'12411.3
2018-Jun-11 18:00S 35°54' E 150°12'27811.6 330 / 141014.910.8 13.0 6.816.0
2018-Jun-10 18:00S 39°12' E 146°06'96 1.9 030 / 121024.6 5.4 14.0 8.017.0
2018-Jun-08 14:34S 37°54' E 144°54'0 0.2
2018-Jun-08 14:22S 37°54' E 144°55'12 0.6
2018-Jun-07 18:00S 38°06' E 144°54'70 7.7 010 / 251016.8 5.4 15.0 9.215.0
2018-Jun-07 08:52S 39°00' E 145°50'26 9.7
2018-Jun-07 06:12S 39°11' E 146°20'810.6
2018-Jun-07 05:27S 39°09' E 146°30'510.9
2018-Jun-07 04:58S 39°07' E 146°37'510.9
2018-Jun-07 04:30S 39°06' E 146°43'2411.1
2018-Jun-07 02:23S 38°59' E 147°12'410.7
2018-Jun-07 02:00S 38°57' E 147°17'611.0
2018-Jun-07 01:30S 38°55' E 147°23'510.9
2018-Jun-07 01:00S 38°54' E 147°30'610.9
2018-Jun-07 00:30S 38°52' E 147°37'511.1
2018-Jun-07 00:00S 38°50' E 147°43'511.1
2018-Jun-06 23:31S 38°48' E 147°50'612.0
2018-Jun-06 23:00S 38°47' E 147°57'713.3
2018-Jun-06 22:31S 38°45' E 148°06'713.4
2018-Jun-06 22:01S 38°43' E 148°14'510.7
2018-Jun-06 21:31S 38°39' E 148°19'510.2
2018-Jun-06 21:00S 38°36' E 148°24'510.1
2018-Jun-06 20:30S 38°33' E 148°29'510.0
2018-Jun-06 20:00S 38°29' E 148°34'510.0
2018-Jun-06 19:31S 38°26' E 148°39'5 9.8
2018-Jun-06 18:59S 38°23' E 148°44'5 9.8
2018-Jun-06 18:29S 38°20' E 148°48'5 9.9
2018-Jun-06 17:59S 38°16' E 148°53'510.2
2018-Jun-06 17:29S 38°13' E 148°58'510.3
2018-Jun-06 17:00S 38°10' E 149°03'510.3
2018-Jun-06 16:30S 38°07' E 149°08'610.4
2018-Jun-06 15:58S 38°03' E 149°13'510.2
2018-Jun-06 15:30S 37°60' E 149°18'510.2
2018-Jun-06 14:58S 37°56' E 149°22'  
Track history (hours):
 
Tides and Currents Weather Stations Pressure Air Temp Water Temp Dewpoint Dewpoint Depression Visibility Wind Speed Wind Dir Waves Ship Positions

Papuan Chief

Last reported at 2018-Jun-15 21:34 UTC. Time now 2018-Jun-21 23:47 UTC.
Position S 26°39' E 153°22'.

Length 158.1 m; beam 22 m; draft 7.8 m.

Type: Ship (hazmat cat D). MMSI: 477061000.

Date/timePositionNaut miles runAvg speedWind from/ knotsBaromVisibWave heightAir tempDewpointWater temp
2018-Jun-15 21:34S 26°39' E 153°22'312.0
2018-Jun-15 21:21S 26°40' E 153°19'611.9
2018-Jun-15 20:52S 26°42' E 153°13'710.3
2018-Jun-15 20:13S 26°48' E 153°11'311.8
2018-Jun-15 19:56S 26°52' E 153°09'613.8
2018-Jun-15 19:30S 26°57' E 153°13'713.7
2018-Jun-15 19:00S 27°03' E 153°16'713.3
2018-Jun-15 18:31S 27°08' E 153°21'714.1
2018-Jun-15 18:00S 27°15' E 153°19'713.8
2018-Jun-15 17:30S 27°18' E 153°13'5 9.6
2018-Jun-15 17:01S 27°22' E 153°10'0 0.1
2018-Jun-15 16:26S 27°22' E 153°10'0 0.0
2018-Jun-15 15:56S 27°22' E 153°10'0 0.0
2018-Jun-15 15:29S 27°22' E 153°10'0 0.0
2018-Jun-15 14:59S 27°22' E 153°10'0 0.0
2018-Jun-15 14:29S 27°22' E 153°10'0 0.0
2018-Jun-15 13:56S 27°22' E 153°10'0 0.0
2018-Jun-15 13:29S 27°22' E 153°10'0 0.0
2018-Jun-15 12:59S 27°22' E 153°10'0 0.0
2018-Jun-15 12:29S 27°22' E 153°10'0 0.0
2018-Jun-15 11:59S 27°22' E 153°10'0 0.0
2018-Jun-15 11:29S 27°22' E 153°10'0 0.0
2018-Jun-15 10:59S 27°22' E 153°10'0 0.0
2018-Jun-15 10:29S 27°22' E 153°10'0 0.0
2018-Jun-15 09:59S 27°22' E 153°10'0 0.0
2018-Jun-15 09:29S 27°22' E 153°10'0 0.0
2018-Jun-15 08:59S 27°22' E 153°10'0 0.0
2018-Jun-15 08:29S 27°22' E 153°10'0 0.0
2018-Jun-15 07:59S 27°22' E 153°10'0 0.0
2018-Jun-15 07:29S 27°22' E 153°10'0 0.0
2018-Jun-15 06:59S 27°22' E 153°10'0 0.0
2018-Jun-15 06:29S 27°22' E 153°10'0 0.0
2018-Jun-15 05:59S 27°22' E 153°10'0 0.0
2018-Jun-15 05:29S 27°22' E 153°10'0 0.9
2018-Jun-15 05:00S 27°22' E 153°10'4 7.6
2018-Jun-15 04:30S 27°19' E 153°12'612.7
2018-Jun-15 04:00S 27°13' E 153°16'612.0
2018-Jun-15 03:30S 27°09' E 153°21'611.9
2018-Jun-15 03:01S 27°03' E 153°18'611.4
2018-Jun-15 02:30S 26°59' E 153°14'713.0
2018-Jun-15 02:00S 26°53' E 153°10'13 5.1
2018-Jun-14 23:28S 26°51' E 153°25'1511.5
2018-Jun-14 22:11S 27°02' E 153°35'212.4
2018-Jun-14 22:00S 27°04' E 153°36'612.8
2018-Jun-14 21:30S 27°10' E 153°38'812.4
2018-Jun-14 20:51S 27°18' E 153°39'411.7
2018-Jun-14 20:30S 27°22' E 153°40'611.5
2018-Jun-14 20:00S 27°28' E 153°40'611.2
2018-Jun-14 19:27S 27°34' E 153°40'511.4
2018-Jun-14 18:59S 27°40' E 153°41'511.3
2018-Jun-14 18:30S 27°45' E 153°42'610.5
2018-Jun-14 17:58S 27°51' E 153°42'510.6
2018-Jun-14 17:30S 27°56' E 153°42'611.5
2018-Jun-14 17:00S 28°01' E 153°42'812.3
2018-Jun-14 16:23S 28°09' E 153°42'512.4
2018-Jun-14 15:58S 28°14' E 153°42'26212.5
2018-Jun-13 19:07S 32°29' E 152°36'413.4
2018-Jun-13 18:50S 32°32' E 152°33'513.7
2018-Jun-13 18:30S 32°36' E 152°29'613.3
2018-Jun-13 18:00S 32°40' E 152°24'713.0
2018-Jun-13 17:30S 32°46' E 152°19'612.7
2018-Jun-13 17:00S 32°49' E 152°13'713.3
2018-Jun-13 16:31S 32°53' E 152°06'713.2
2018-Jun-13 16:01S 32°57' E 152°00'713.2
2018-Jun-13 15:31S 33°01' E 151°55'713.4
2018-Jun-13 15:00S 33°06' E 151°49'3213.2
2018-Jun-13 12:33S 33°35' E 151°30'313.3
2018-Jun-13 12:22S 33°37' E 151°29'512.9
2018-Jun-13 12:00S 33°41' E 151°26'713.2
2018-Jun-13 11:31S 33°47' E 151°24'612.9
2018-Jun-13 11:01S 33°53' E 151°22'713.0
2018-Jun-13 10:30S 33°60' E 151°20'4 8.8
2018-Jun-13 10:00S 34°01' E 151°15'3 6.9
2018-Jun-13 09:30S 33°58' E 151°12'4 0.1
2018-Jun-12 05:06S 34°01' E 151°16'111.1
2018-Jun-12 04:59S 34°02' E 151°17'12411.3
2018-Jun-11 18:00S 35°54' E 150°12'27811.6 330 / 141014.910.8 13.0 6.816.0
2018-Jun-10 18:00S 39°12' E 146°06'96 1.9 030 / 121024.6 5.4 14.0 8.017.0
2018-Jun-08 14:34S 37°54' E 144°54'0 0.2
2018-Jun-08 14:22S 37°54' E 144°55'12 0.6
2018-Jun-07 18:00S 38°06' E 144°54'70 7.7 010 / 251016.8 5.4 15.0 9.215.0
2018-Jun-07 08:52S 39°00' E 145°50'26 9.7
2018-Jun-07 06:12S 39°11' E 146°20'810.6
2018-Jun-07 05:27S 39°09' E 146°30'510.9
2018-Jun-07 04:58S 39°07' E 146°37'510.9
2018-Jun-07 04:30S 39°06' E 146°43'2411.1
2018-Jun-07 02:23S 38°59' E 147°12'410.7
2018-Jun-07 02:00S 38°57' E 147°17'611.0
2018-Jun-07 01:30S 38°55' E 147°23'510.9
2018-Jun-07 01:00S 38°54' E 147°30'610.9
2018-Jun-07 00:30S 38°52' E 147°37'511.1
2018-Jun-07 00:00S 38°50' E 147°43'511.1
2018-Jun-06 23:31S 38°48' E 147°50'612.0
2018-Jun-06 23:00S 38°47' E 147°57'713.3
2018-Jun-06 22:31S 38°45' E 148°06'713.4
2018-Jun-06 22:01S 38°43' E 148°14'510.7
2018-Jun-06 21:31S 38°39' E 148°19'510.2
2018-Jun-06 21:00S 38°36' E 148°24'510.1
2018-Jun-06 20:30S 38°33' E 148°29'510.0
2018-Jun-06 20:00S 38°29' E 148°34'510.0
2018-Jun-06 19:31S 38°26' E 148°39'5 9.8
2018-Jun-06 18:59S 38°23' E 148°44'5 9.8
2018-Jun-06 18:29S 38°20' E 148°48'5 9.9
2018-Jun-06 17:59S 38°16' E 148°53'510.2
2018-Jun-06 17:29S 38°13' E 148°58'510.3
2018-Jun-06 17:00S 38°10' E 149°03'510.3
2018-Jun-06 16:30S 38°07' E 149°08'610.4
2018-Jun-06 15:58S 38°03' E 149°13'510.2
2018-Jun-06 15:30S 37°60' E 149°18'510.2
2018-Jun-06 14:58S 37°56' E 149°22'  

Dump ship's entire track history